createdAt,value
2018-12-30T00:00:06.082Z,30.9
2018-12-30T00:00:55.528Z,30.2
2018-12-30T00:01:45.964Z,29.4
2018-12-30T00:02:40.035Z,28.9
2018-12-30T00:03:30.792Z,28.6
2018-12-30T00:04:19.520Z,28.4
2018-12-30T00:06:00.228Z,28.5
2018-12-30T00:06:50.311Z,29.3
2018-12-30T00:07:35.441Z,29.8
2018-12-30T00:08:27.186Z,30.3
2018-12-30T00:09:17.169Z,30.6
2018-12-30T00:10:05.511Z,30.9
2018-12-30T00:10:56.290Z,31.1
2018-12-30T00:11:45.236Z,31.4
2018-12-30T00:12:36.082Z,31.6
2018-12-30T00:13:25.976Z,31.8
2018-12-30T00:14:18.876Z,32
2018-12-30T00:15:07.943Z,32.2
2018-12-30T00:33:12.772Z,28.6
2018-12-30T00:34:03.062Z,28.2
2018-12-30T00:34:53.419Z,27.9
2018-12-30T00:35:44.597Z,27.5
2018-12-30T00:36:32.933Z,28.3
2018-12-30T00:37:22.529Z,29
2018-12-30T00:38:13.549Z,29.7
2018-12-30T00:39:06.302Z,30.1
2018-12-30T00:39:53.967Z,30.4
2018-12-30T00:40:43.714Z,30.8
2018-12-30T00:41:34.457Z,31
2018-12-30T00:42:23.596Z,31.3
2018-12-30T00:43:14.941Z,31.5
2018-12-30T00:44:02.284Z,31.8
2018-12-30T00:44:53.731Z,31.9
2018-12-30T00:45:44.049Z,32.1
2018-12-30T00:46:33.594Z,32.3
2018-12-30T00:47:23.176Z,32.4
2018-12-30T00:48:17.101Z,32.6
2018-12-30T00:49:03.253Z,32.8
2018-12-30T00:49:53.199Z,32.9
2018-12-30T00:50:44.395Z,33.1
2018-12-30T00:51:36.378Z,33.2
2018-12-30T00:52:24.833Z,32.3
2018-12-30T00:53:13.521Z,31.9
2018-12-30T00:54:04.776Z,31.8
2018-12-30T00:54:55.074Z,31.7
2018-12-30T00:55:44.311Z,31.5
2018-12-30T00:56:35.319Z,31.4
2018-12-30T00:57:24.740Z,31.3
2018-12-30T00:58:14.377Z,31.1
2018-12-30T00:59:05.325Z,31
2018-12-30T00:59:54.853Z,30.9
2018-12-30T01:00:46.352Z,30.9
2018-12-30T01:01:35.180Z,30.8
2018-12-30T01:02:25.271Z,30.1
2018-12-30T01:03:15.253Z,29.4
2018-12-30T01:04:07.418Z,28.9
2018-12-30T01:04:55.391Z,28.6
2018-12-30T01:05:44.973Z,28.4
2018-12-30T01:06:35.843Z,27.9
2018-12-30T01:07:26.033Z,28.5
2018-12-30T01:08:14.863Z,29.3
2018-12-30T01:09:05.485Z,29.8
2018-12-30T01:09:56.250Z,30.3
2018-12-30T01:10:45.812Z,30.6
2018-12-30T01:11:35.862Z,30.9
2018-12-30T01:12:26.290Z,31.1
2018-12-30T01:13:18.211Z,31.4
2018-12-30T01:14:05.489Z,31.6
2018-12-30T01:14:56.680Z,31.8
2018-12-30T01:15:46.522Z,32
2018-12-30T01:16:37.595Z,32.2
2018-12-30T01:17:25.731Z,32.4
2018-12-30T01:18:15.743Z,32.5
2018-12-30T01:19:06.167Z,32.7
2018-12-30T01:19:56.767Z,32.8
2018-12-30T01:20:46.487Z,33
2018-12-30T01:21:36.666Z,33.1
2018-12-30T01:22:40.519Z,33.1
2018-12-30T01:23:16.196Z,32
2018-12-30T01:24:06.444Z,31.9
2018-12-30T01:24:57.106Z,31.8
2018-12-30T01:25:49.346Z,31.6
2018-12-30T01:26:36.581Z,31.4
2018-12-30T01:27:26.711Z,31.3
2018-12-30T01:28:16.466Z,31.2
2018-12-30T01:29:09.043Z,31.1
2018-12-30T01:29:57.098Z,31
2018-12-30T01:30:47.178Z,30.9
2018-12-30T01:31:37.528Z,30.9
2018-12-30T01:32:27.363Z,30.2
2018-12-30T01:33:15.206Z,29.5
2018-12-30T01:34:07.453Z,29.1
2018-12-30T01:34:57.993Z,28.8
2018-12-30T01:35:48.071Z,28.5
2018-12-30T01:36:37.035Z,28
2018-12-30T01:37:27.585Z,28.1
2018-12-30T01:38:18.100Z,28.9
2018-12-30T01:39:07.492Z,29.5
2018-12-30T01:39:58.356Z,30.1
2018-12-30T01:40:47.295Z,30.4
2018-12-30T01:41:40.485Z,30.8
2018-12-30T01:42:27.450Z,31
2018-12-30T01:43:18.290Z,31.2
2018-12-30T01:44:07.400Z,30.3
2018-12-30T01:44:59.951Z,29.3
2018-12-30T01:46:39.089Z,26.6
2018-12-30T01:47:27.464Z,25.3
2018-12-30T01:48:17.525Z,24.3
2018-12-30T01:49:07.625Z,23.2
2018-12-30T01:49:59.014Z,22.8
2018-12-30T01:50:49.064Z,22.9
2018-12-30T01:51:41.629Z,23.9
2018-12-30T01:52:28.968Z,25.3
2018-12-30T01:53:19.000Z,26.3
2018-12-30T01:54:10.729Z,27.1
2018-12-30T01:54:58.864Z,28.1
2018-12-30T01:55:48.986Z,28.9
2018-12-30T01:56:38.844Z,29.5
2018-12-30T01:57:30.957Z,30
2018-12-30T01:58:19.121Z,30.4
2018-12-30T01:59:08.823Z,30.8
2018-12-30T01:59:59.684Z,31.1
2018-12-30T02:00:49.146Z,31.4
2018-12-30T02:01:39.836Z,31.6
2018-12-30T02:02:28.778Z,31.9
2018-12-30T02:03:19.381Z,32.1
2018-12-30T02:04:09.112Z,32.3
2018-12-30T02:04:59.495Z,32.5
2018-12-30T02:05:49.275Z,32.7
2018-12-30T02:06:39.566Z,32.8
2018-12-30T02:07:29.023Z,32.9
2018-12-30T02:08:19.648Z,33.1
2018-12-30T02:09:09.698Z,33.3
2018-12-30T02:10:01.709Z,32.7
2018-12-30T02:10:48.715Z,31.9
2018-12-30T02:11:40.498Z,31.9
2018-12-30T02:12:29.700Z,31.8
2018-12-30T02:13:22.046Z,31.6
2018-12-30T02:14:09.488Z,31.4
2018-12-30T02:15:00.237Z,31.3
2018-12-30T02:15:49.877Z,31.2
2018-12-30T02:16:41.825Z,31.1
2018-12-30T02:17:29.677Z,31.1
2018-12-30T02:18:20.083Z,30.9
2018-12-30T02:19:10.190Z,30.9
2018-12-30T02:19:59.982Z,30.5
2018-12-30T02:20:51.095Z,29.7
2018-12-30T02:21:48.270Z,29.1
2018-12-30T02:22:29.582Z,28.8
2018-12-30T02:23:20.409Z,28.5
2018-12-30T02:24:10.767Z,27.9
2018-12-30T02:25:01.150Z,28.6
2018-12-30T02:25:51.482Z,29.3
2018-12-30T02:26:39.827Z,29.9
2018-12-30T02:27:31.819Z,30.3
2018-12-30T02:28:21.009Z,30.6
2018-12-30T02:29:12.007Z,30.9
2018-12-30T02:30:00.867Z,31.1
2018-12-30T02:30:51.224Z,31.4
2018-12-30T02:31:41.051Z,31.6
2018-12-30T02:32:33.169Z,31.8
2018-12-30T02:33:21.610Z,32
2018-12-30T02:34:11.024Z,32.1
2018-12-30T02:35:01.897Z,32.3
2018-12-30T02:35:52.710Z,32.5
2018-12-30T02:36:41.681Z,32.7
2018-12-30T02:37:31.496Z,32.8
2018-12-30T02:38:20.462Z,32.9
2018-12-30T02:39:12.066Z,33.1
2018-12-30T02:40:02.261Z,33.2
2018-12-30T02:40:51.730Z,32.9
2018-12-30T02:41:41.143Z,32
2018-12-30T02:42:30.676Z,31.8
2018-12-30T02:43:22.936Z,31.8
2018-12-30T02:44:11.810Z,31.6
2018-12-30T02:45:02.651Z,31.4
2018-12-30T02:45:52.794Z,31.3
2018-12-30T02:46:42.384Z,31.1
2018-12-30T02:47:32.913Z,31
2018-12-30T02:48:23.794Z,30.9
2018-12-30T02:49:12.926Z,30.9
2018-12-30T02:50:01.971Z,30.8
2018-12-30T02:50:52.347Z,30.7
2018-12-30T02:51:54.211Z,29.9
2018-12-30T02:52:32.687Z,29.2
2018-12-30T02:53:23.010Z,28.8
2018-12-30T02:54:12.885Z,28.6
2018-12-30T02:55:05.285Z,27.9
2018-12-30T02:55:52.772Z,28.6
2018-12-30T02:56:43.018Z,29.2
2018-12-30T02:57:32.793Z,29.8
2018-12-30T02:58:24.833Z,30.2
2018-12-30T02:59:12.415Z,30.5
2018-12-30T03:00:03.578Z,30.8
2018-12-30T03:00:52.965Z,31
2018-12-30T03:01:45.350Z,31.3
2018-12-30T03:02:34.192Z,31.5
2018-12-30T03:03:24.029Z,31.7
2018-12-30T03:04:13.197Z,31.8
2018-12-30T03:05:04.104Z,32
2018-12-30T03:05:53.539Z,32.2
2018-12-30T03:06:43.692Z,32.3
2018-12-30T03:07:33.922Z,32.5
2018-12-30T03:08:23.201Z,32.7
2018-12-30T03:09:13.586Z,32.8
2018-12-30T03:10:03.949Z,32.9
2018-12-30T03:10:54.713Z,33.1
2018-12-30T03:11:43.982Z,33.2
2018-12-30T03:12:34.909Z,32.4
2018-12-30T03:13:24.397Z,31.9
2018-12-30T03:14:14.427Z,31.8
2018-12-30T03:15:03.108Z,31.7
2018-12-30T03:15:54.222Z,31.5
2018-12-30T03:16:44.529Z,31.4
2018-12-30T03:17:36.131Z,31.3
2018-12-30T03:18:23.911Z,31.1
2018-12-30T03:19:13.982Z,31.1
2018-12-30T03:20:04.254Z,30.9
2018-12-30T03:20:56.004Z,30.9
2018-12-30T03:21:44.375Z,30.8
2018-12-30T03:22:34.684Z,30.3
2018-12-30T03:23:24.249Z,29.5
2018-12-30T03:24:14.201Z,29
2018-12-30T03:25:05.429Z,28.8
2018-12-30T03:25:55.424Z,28.4
2018-12-30T03:26:44.719Z,27.9
2018-12-30T03:27:35.024Z,28.6
2018-12-30T03:28:23.653Z,29.3
2018-12-30T03:29:15.073Z,29.8
2018-12-30T03:30:05.349Z,30.3
2018-12-30T03:30:54.330Z,30.5
2018-12-30T03:31:44.902Z,30.8
2018-12-30T03:32:35.842Z,31.1
2018-12-30T03:33:25.703Z,31.3
2018-12-30T03:34:16.065Z,31.4
2018-12-30T03:35:05.594Z,31
2018-12-30T03:35:55.641Z,30
2018-12-30T03:36:45.917Z,28.4
2018-12-30T03:37:35.755Z,27
2018-12-30T03:38:25.679Z,26.2
2018-12-30T03:39:15.425Z,26.1
2018-12-30T03:40:06.503Z,26.7
2018-12-30T03:41:45.937Z,28.6
2018-12-30T03:42:35.856Z,29.4
2018-12-30T03:43:25.790Z,29.9
2018-12-30T03:44:15.922Z,30.3
2018-12-30T03:45:05.310Z,30.7
2018-12-30T03:45:55.696Z,31
2018-12-30T03:46:45.284Z,31.3
2018-12-30T03:47:35.844Z,31.6
2018-12-30T03:48:26.112Z,31.8
2018-12-30T03:49:15.675Z,32.1
2018-12-30T03:50:06.743Z,32.3
2018-12-30T03:50:56.732Z,32.4
2018-12-30T03:51:46.061Z,32.6
2018-12-30T03:52:37.276Z,32.8
2018-12-30T03:53:26.790Z,32.9
2018-12-30T03:54:17.108Z,33.1
2018-12-30T03:55:07.224Z,33.3
2018-12-30T03:55:57.199Z,32.4
2018-12-30T03:56:47.544Z,31.9
2018-12-30T03:57:36.475Z,31.8
2018-12-30T03:58:26.269Z,31.7
2018-12-30T03:59:16.097Z,31.5
2018-12-30T04:00:06.513Z,31.4
2018-12-30T04:00:56.748Z,31.3
2018-12-30T04:01:47.303Z,31.1
2018-12-30T04:02:38.029Z,31.1
2018-12-30T04:03:27.471Z,30.9
2018-12-30T04:04:17.802Z,30.9
2018-12-30T04:05:07.317Z,30.4
2018-12-30T04:05:57.492Z,29.7
2018-12-30T04:06:47.495Z,29.2
2018-12-30T04:07:37.436Z,28.8
2018-12-30T04:08:27.044Z,28.6
2018-12-30T04:09:17.726Z,28.2
2018-12-30T04:10:08.137Z,28.1
2018-12-30T04:10:58.231Z,28.9
2018-12-30T04:11:47.837Z,29.5
2018-12-30T04:12:37.224Z,30.1
2018-12-30T04:13:28.211Z,30.4
2018-12-30T04:14:18.201Z,30.7
2018-12-30T04:15:08.741Z,30.9
2018-12-30T04:15:57.502Z,31.2
2018-12-30T04:16:47.934Z,31.4
2018-12-30T04:17:38.297Z,31.6
2018-12-30T04:18:28.494Z,31.9
2018-12-30T04:19:18.509Z,32
2018-12-30T04:20:08.528Z,32.2
2018-12-30T04:20:58.115Z,32.4
2018-12-30T04:21:49.041Z,32.5
2018-12-30T04:22:40.335Z,32.7
2018-12-30T04:23:29.084Z,32.8
2018-12-30T04:24:18.872Z,32.9
2018-12-30T04:25:09.024Z,33.1
2018-12-30T04:25:59.934Z,33.2
2018-12-30T04:26:48.206Z,32.4
2018-12-30T04:27:38.784Z,31.9
2018-12-30T04:28:28.912Z,31.8
2018-12-30T04:29:19.266Z,31.7
2018-12-30T04:30:08.465Z,31.5
2018-12-30T04:30:59.140Z,31.4
2018-12-30T04:31:49.687Z,31.3
2018-12-30T04:32:39.726Z,31.1
2018-12-30T04:33:28.710Z,31
2018-12-30T04:34:20.157Z,30.9
2018-12-30T04:35:09.382Z,30.8
2018-12-30T04:35:59.973Z,30.7
2018-12-30T04:36:49.758Z,29.8
2018-12-30T04:37:39.520Z,29.3
2018-12-30T04:38:30.180Z,28.9
2018-12-30T04:39:19.944Z,28.6
2018-12-30T04:40:10.263Z,28.3
2018-12-30T04:41:00.323Z,28
2018-12-30T04:41:49.801Z,28.8
2018-12-30T04:42:40.214Z,29.4
2018-12-30T04:43:30.582Z,30
2018-12-30T04:44:20.330Z,30.4
2018-12-30T04:45:10.604Z,30.7
2018-12-30T05:02:32.196Z,31.2
2018-12-30T05:03:23.051Z,31.1
2018-12-30T05:04:13.354Z,30.9
2018-12-30T05:05:53.106Z,30.8
2018-12-30T05:06:43.341Z,30.8
2018-12-30T05:07:33.604Z,30.3
2018-12-30T05:08:23.156Z,29.5
2018-12-30T05:09:12.599Z,29
2018-12-30T05:10:03.855Z,28.7
2018-12-30T05:10:53.793Z,28.4
2018-12-30T05:12:34.281Z,28.4
2018-12-30T05:13:22.945Z,29.1
2018-12-30T05:14:12.871Z,29.6
2018-12-30T05:15:03.607Z,30
2018-12-30T05:15:52.481Z,30.3
2018-12-30T05:16:44.208Z,30.6
2018-12-30T05:17:34.729Z,30.9
2018-12-30T05:18:23.340Z,31.1
2018-12-30T05:19:13.530Z,31.3
2018-12-30T05:20:03.340Z,31.5
2018-12-30T05:20:53.412Z,31.7
2018-12-30T05:21:44.245Z,31.9
2018-12-30T05:22:41.420Z,32.1
2018-12-30T05:23:23.913Z,32.3
2018-12-30T05:24:14.705Z,32.4
2018-12-30T05:25:04.500Z,32.2
2018-12-30T05:25:54.570Z,31
2018-12-30T05:26:43.792Z,29.4
2018-12-30T05:27:33.876Z,27.9
2018-12-30T05:28:25.474Z,27
2018-12-30T05:29:14.559Z,26.9
2018-12-30T05:30:05.005Z,27.3
2018-12-30T05:30:54.640Z,28.4
2018-12-30T05:31:43.914Z,29.2
2018-12-30T05:32:34.707Z,29.8
2018-12-30T05:33:25.310Z,30.3
2018-12-30T05:34:15.224Z,30.6
2018-12-30T05:35:04.934Z,31
2018-12-30T05:35:57.159Z,31.3
2018-12-30T05:36:44.449Z,31.5
2018-12-30T05:37:35.469Z,31.8
2018-12-30T05:38:25.759Z,32.1
2018-12-30T05:39:15.735Z,32.3
2018-12-30T05:40:05.619Z,32.4
2018-12-30T05:40:55.859Z,32.6
2018-12-30T05:41:44.857Z,32.7
2018-12-30T05:42:34.607Z,32.8
2018-12-30T05:43:24.910Z,32.8
2018-12-30T05:44:15.893Z,31.8
2018-12-30T05:45:05.575Z,31.6
2018-12-30T05:45:56.515Z,31.4
2018-12-30T05:46:45.411Z,31.3
2018-12-30T05:47:35.771Z,31.1
2018-12-30T05:48:26.388Z,30.9
2018-12-30T05:49:14.768Z,30.8
2018-12-30T05:50:06.341Z,30.6
2018-12-30T05:50:56.052Z,30.5
2018-12-30T05:51:46.051Z,30.4
2018-12-30T05:52:43.503Z,30.3
2018-12-30T05:53:26.932Z,29.6
2018-12-30T05:54:16.570Z,29.1
2018-12-30T05:55:06.603Z,28.6
2018-12-30T05:55:56.330Z,28.3
2018-12-30T05:56:46.120Z,28.1
2018-12-30T05:57:36.703Z,27.6
2018-12-30T05:58:26.010Z,28
2018-12-30T05:59:15.997Z,28.8
2018-12-30T06:00:06.630Z,29.3
2018-12-30T06:00:56.112Z,29.8
2018-12-30T06:01:46.173Z,30.2
2018-12-30T06:02:36.534Z,30.4
2018-12-30T06:03:26.142Z,30.8
2018-12-30T06:04:17.139Z,30.9
2018-12-30T06:05:07.807Z,31.2
2018-12-30T06:05:57.307Z,31.4
2018-12-30T06:06:47.591Z,31.6
2018-12-30T06:07:37.786Z,31.8
2018-12-30T06:08:27.446Z,31.9
2018-12-30T06:09:17.841Z,32.1
2018-12-30T06:10:07.435Z,32.3
2018-12-30T06:10:57.101Z,32.4
2018-12-30T06:11:47.134Z,32.6
2018-12-30T06:12:37.724Z,32.8
2018-12-30T06:13:28.375Z,32.9
2018-12-30T06:14:18.168Z,33
2018-12-30T06:15:07.974Z,32.1
2018-12-30T06:15:58.269Z,31.7
2018-12-30T06:16:48.011Z,31.6
2018-12-30T06:17:37.793Z,31.3
2018-12-30T06:18:27.258Z,31.1
2018-12-30T06:19:17.586Z,30.9
2018-12-30T06:20:08.773Z,30.8
2018-12-30T06:20:58.378Z,30.6
2018-12-30T06:21:48.361Z,30.6
2018-12-30T06:22:38.248Z,30.4
2018-12-30T06:23:28.175Z,30.4
2018-12-30T06:24:19.030Z,30.1
2018-12-30T06:25:07.920Z,29.3
2018-12-30T06:25:58.438Z,28.8
2018-12-30T06:26:48.900Z,28.4
2018-12-30T06:27:38.190Z,28.2
2018-12-30T06:28:28.509Z,27.9
2018-12-30T06:29:19.127Z,27.6
2018-12-30T06:30:09.225Z,28.4
2018-12-30T06:30:58.677Z,29
2018-12-30T06:31:48.483Z,29.6
2018-12-30T06:32:38.549Z,29.9
2018-12-30T06:33:29.517Z,30.3
2018-12-30T06:34:19.001Z,30.6
2018-12-30T06:35:09.145Z,30.9
2018-12-30T06:35:58.775Z,31.1
2018-12-30T06:36:49.441Z,31.3
2018-12-30T06:37:39.744Z,31.5
2018-12-30T06:38:29.292Z,31.7
2018-12-30T06:39:19.609Z,31.9
2018-12-30T06:40:17.452Z,32.1
2018-12-30T06:40:58.081Z,32.3
2018-12-30T06:41:49.784Z,32.4
2018-12-30T06:42:39.771Z,32.6
2018-12-30T06:43:29.816Z,32.7
2018-12-30T06:44:20.252Z,32.8
2018-12-30T06:45:09.961Z,32.9
2018-12-30T06:46:00.369Z,32.3
2018-12-30T06:46:49.766Z,31.7
2018-12-30T06:47:39.919Z,31.6
2018-12-30T06:48:29.068Z,31.4
2018-12-30T06:49:20.286Z,31.3
2018-12-30T06:50:10.616Z,31
2018-12-30T06:51:00.378Z,30.9
2018-12-30T06:51:50.366Z,30.7
2018-12-30T06:52:39.715Z,30.6
2018-12-30T06:53:30.063Z,30.5
2018-12-30T06:54:20.951Z,30.4
2018-12-30T06:55:10.392Z,30.3
2018-12-30T06:56:00.686Z,29.6
2018-12-30T06:56:50.254Z,28.9
2018-12-30T06:57:40.796Z,28.6
2018-12-30T06:58:29.798Z,28.3
2018-12-30T06:59:20.343Z,28.1
2018-12-30T07:00:10.495Z,27.5
2018-12-30T07:01:01.292Z,28.1
2018-12-30T07:01:50.765Z,28.8
2018-12-30T07:02:41.123Z,29.4
2018-12-30T07:03:30.923Z,29.9
2018-12-30T07:04:20.786Z,30.2
2018-12-30T07:05:11.333Z,30.5
2018-12-30T07:06:01.665Z,30.8
2018-12-30T07:06:51.478Z,31
2018-12-30T07:07:41.498Z,31.3
2018-12-30T07:08:31.282Z,31.4
2018-12-30T07:09:21.085Z,31.7
2018-12-30T07:10:11.655Z,31.9
2018-12-30T07:11:02.020Z,32.1
2018-12-30T07:11:52.525Z,32.2
2018-12-30T07:12:41.570Z,32.4
2018-12-30T07:13:31.295Z,32.6
2018-12-30T07:14:21.674Z,32.6
2018-12-30T07:15:10.630Z,32.7
2018-12-30T07:16:02.023Z,31.6
2018-12-30T07:16:51.917Z,30
2018-12-30T07:17:42.433Z,28.5
2018-12-30T07:18:32.295Z,27.1
2018-12-30T07:19:21.189Z,26.9
2018-12-30T07:20:12.354Z,26.9
2018-12-30T07:21:02.126Z,27.9
2018-12-30T07:21:52.167Z,28.8
2018-12-30T07:22:43.080Z,29.6
2018-12-30T07:23:32.834Z,30.1
2018-12-30T07:24:22.896Z,30.6
2018-12-30T07:25:12.664Z,30.9
2018-12-30T07:26:01.886Z,31.3
2018-12-30T07:26:52.274Z,31.6
2018-12-30T07:27:42.904Z,31.8
2018-12-30T07:28:31.794Z,32.1
2018-12-30T07:29:22.956Z,32.3
2018-12-30T07:30:12.172Z,32.6
2018-12-30T07:31:03.837Z,32.8
2018-12-30T07:31:52.901Z,32.9
2018-12-30T07:32:42.966Z,32.5
2018-12-30T07:33:32.161Z,31.8
2018-12-30T07:34:22.549Z,31.7
2018-12-30T07:35:13.072Z,31.6
2018-12-30T07:36:03.994Z,31.4
2018-12-30T07:36:52.893Z,31.2
2018-12-30T07:37:43.746Z,31.1
2018-12-30T07:38:33.418Z,30.9
2018-12-30T07:39:23.648Z,30.8
2018-12-30T07:40:13.430Z,30.7
2018-12-30T07:41:03.736Z,30.6
2018-12-30T07:41:53.836Z,30.6
2018-12-30T07:42:44.118Z,29.9
2018-12-30T07:43:33.663Z,29.3
2018-12-30T07:44:23.805Z,28.8
2018-12-30T07:45:13.531Z,28.5
2018-12-30T07:46:02.886Z,28.3
2018-12-30T07:46:53.994Z,27.7
2018-12-30T07:47:43.442Z,28.3
2018-12-30T07:48:33.722Z,29.1
2018-12-30T07:49:23.507Z,29.6
2018-12-30T07:50:13.840Z,30.1
2018-12-30T07:51:03.339Z,30.4
2018-12-30T07:51:54.012Z,30.8
2018-12-30T07:52:44.094Z,31.1
2018-12-30T07:53:34.193Z,31.3
2018-12-30T07:54:23.771Z,31.6
2018-12-30T07:55:14.529Z,31.8
2018-12-30T07:56:03.402Z,32
2018-12-30T07:56:54.559Z,32.3
2018-12-30T07:57:45.079Z,32.4
2018-12-30T07:58:34.791Z,32.6
2018-12-30T07:59:24.814Z,32.8
2018-12-30T08:00:15.087Z,33
2018-12-30T08:01:04.609Z,33.1
2018-12-30T08:01:55.451Z,33.1
2018-12-30T08:02:45.724Z,32.1
2018-12-30T08:03:35.524Z,31.8
2018-12-30T08:04:25.099Z,31.7
2018-12-30T08:05:15.183Z,31.6
2018-12-30T08:06:05.203Z,31.4
2018-12-30T08:06:55.816Z,31.2
2018-12-30T08:07:45.036Z,31.1
2018-12-30T08:08:35.396Z,30.9
2018-12-30T08:09:24.882Z,30.8
2018-12-30T08:10:15.574Z,30.8
2018-12-30T08:11:05.423Z,30.6
2018-12-30T08:11:56.165Z,29.9
2018-12-30T08:12:45.653Z,29.3
2018-12-30T08:13:36.358Z,28.9
2018-12-30T08:14:25.208Z,28.6
2018-12-30T08:15:15.325Z,28.4
2018-12-30T08:16:56.005Z,28.2
2018-12-30T08:17:46.063Z,29
2018-12-30T08:18:36.208Z,29.7
2018-12-30T08:19:25.375Z,30.1
2018-12-30T08:20:14.568Z,30.5
2018-12-30T08:21:06.006Z,30.8
2018-12-30T08:21:56.540Z,31.1
2018-12-30T08:22:46.096Z,31.3
2018-12-30T08:23:35.127Z,31.6
2018-12-30T08:24:26.295Z,31.8
2018-12-30T08:25:16.017Z,32
2018-12-30T08:26:06.340Z,32.2
2018-12-30T08:26:57.008Z,32.4
2018-12-30T08:27:46.548Z,32.6
2018-12-30T08:28:38.085Z,32.8
2018-12-30T08:29:26.562Z,32.9
2018-12-30T08:30:16.857Z,33.1
2018-12-30T08:31:05.780Z,33.2
2018-12-30T08:31:57.387Z,32.4
2018-12-30T08:32:45.898Z,31.9
2018-12-30T08:33:37.099Z,31.8
2018-12-30T08:34:27.689Z,31.6
2018-12-30T08:35:16.649Z,31.4
2018-12-30T08:36:06.937Z,31.3
2018-12-30T08:36:56.559Z,31.1
2018-12-30T08:37:48.197Z,31
2018-12-30T08:38:38.204Z,30.8
2018-12-30T08:39:26.913Z,30.8
2018-12-30T08:40:17.802Z,30.6
2018-12-30T08:41:08.069Z,30.6
2018-12-30T08:41:57.664Z,30
2018-12-30T08:42:47.687Z,29.3
2018-12-30T08:43:37.568Z,28.9
2018-12-30T08:44:28.658Z,28.6
2018-12-30T08:45:19.551Z,28.3
2018-12-30T08:46:08.279Z,27.8
2018-12-30T08:46:59.781Z,28.4
2018-12-30T08:47:48.375Z,29.2
2018-12-30T08:48:39.186Z,29.7
2018-12-30T08:49:28.219Z,30.1
2018-12-30T08:50:19.016Z,30.4
2018-12-30T08:51:10.251Z,30.8
2018-12-30T08:51:58.658Z,31
2018-12-30T08:52:49.466Z,31.3
2018-12-30T08:53:40.854Z,31.5
2018-12-30T08:54:29.378Z,31.8
2018-12-30T08:55:18.541Z,31.9
2018-12-30T08:56:08.356Z,32.2
2018-12-30T08:56:58.641Z,32.4
2018-12-30T08:57:49.240Z,32.6
2018-12-30T08:58:39.915Z,32.7
2018-12-30T08:59:28.643Z,32.9
2018-12-30T09:00:18.388Z,33.1
2018-12-30T09:01:09.233Z,32.8
2018-12-30T09:16:57.814Z,28.5
2018-12-30T09:17:47.025Z,29.3
2018-12-30T09:18:37.077Z,29.8
2018-12-30T09:19:27.194Z,30.1
2018-12-30T09:20:16.595Z,30.5
2018-12-30T09:21:07.510Z,30.8
2018-12-30T09:21:57.845Z,31.1
2018-12-30T09:22:47.460Z,30.1
2018-12-30T09:23:44.987Z,28.9
2018-12-30T09:24:27.988Z,27.2
2018-12-30T09:25:17.500Z,26.3
2018-12-30T09:26:07.275Z,26.3
2018-12-30T09:26:57.987Z,26.5
2018-12-30T09:27:48.282Z,27.6
2018-12-30T09:28:36.601Z,28.5
2018-12-30T09:29:27.744Z,29.1
2018-12-30T09:30:18.095Z,29.7
2018-12-30T09:31:07.351Z,30.2
2018-12-30T09:31:58.459Z,30.6
2018-12-30T09:32:48.566Z,30.9
2018-12-30T09:33:38.061Z,31.3
2018-12-30T09:34:28.445Z,31.6
2018-12-30T09:35:18.434Z,31.9
2018-12-30T09:36:07.946Z,32.1
2018-12-30T09:37:00.249Z,32.4
2018-12-30T09:37:48.310Z,32.6
2018-12-30T09:38:39.262Z,32.8
2018-12-30T09:39:28.170Z,32.9
2018-12-30T09:40:18.259Z,33.1
2018-12-30T09:41:09.005Z,32.9
2018-12-30T09:41:58.706Z,32.1
2018-12-30T09:42:48.620Z,31.8
2018-12-30T09:43:38.761Z,31.7
2018-12-30T09:44:28.796Z,31.5
2018-12-30T09:45:18.593Z,31.4
2018-12-30T09:46:07.571Z,31.2
2018-12-30T09:46:58.407Z,31.1
2018-12-30T09:47:50.065Z,31
2018-12-30T09:48:41.331Z,30.9
2018-12-30T09:49:29.403Z,30.8
2018-12-30T09:50:19.478Z,30.7
2018-12-30T09:51:09.318Z,30.5
2018-12-30T09:52:00.460Z,29.7
2018-12-30T09:52:49.080Z,29.1
2018-12-30T09:53:47.569Z,28.8
2018-12-30T09:54:29.219Z,28.4
2018-12-30T09:55:20.371Z,28.3
2018-12-30T09:56:09.565Z,27.7
2018-12-30T09:56:59.707Z,28.3
2018-12-30T09:57:49.632Z,29.1
2018-12-30T09:58:38.975Z,29.8
2018-12-30T09:59:29.922Z,30.2
2018-12-30T10:00:20.405Z,30.5
2018-12-30T10:01:09.660Z,30.9
2018-12-30T10:01:58.900Z,31.1
2018-12-30T10:02:50.595Z,31.4
2018-12-30T10:03:40.222Z,31.6
2018-12-30T10:04:30.170Z,31.8
2018-12-30T10:05:20.477Z,32
2018-12-30T10:06:09.722Z,32.3
2018-12-30T10:06:59.757Z,32.4
2018-12-30T10:07:50.649Z,32.6
2018-12-30T10:08:41.359Z,32.8
2018-12-30T10:09:30.331Z,32.9
2018-12-30T10:10:19.472Z,33.1
2018-12-30T10:11:10.879Z,32.4
2018-12-30T10:12:00.208Z,31.8
2018-12-30T10:12:50.969Z,31.8
2018-12-30T10:13:40.568Z,31.6
2018-12-30T10:14:31.382Z,31.4
2018-12-30T10:15:20.354Z,31.3
2018-12-30T10:16:11.242Z,31.1
2018-12-30T10:17:01.112Z,31
2018-12-30T10:17:51.075Z,30.9
2018-12-30T10:18:41.462Z,30.8
2018-12-30T10:19:30.603Z,30.7
2018-12-30T10:20:20.385Z,30.4
2018-12-30T10:21:11.916Z,29.6
2018-12-30T10:22:00.516Z,29
2018-12-30T10:22:58.622Z,28.7
2018-12-30T10:23:41.772Z,28.4
2018-12-30T10:24:30.501Z,28.1
2018-12-30T10:25:20.794Z,27.7
2018-12-30T10:26:11.383Z,28.4
2018-12-30T10:27:01.706Z,29.1
2018-12-30T10:27:52.878Z,29.8
2018-12-30T10:28:42.323Z,30.3
2018-12-30T10:29:31.814Z,30.6
2018-12-30T10:30:21.991Z,30.9
2018-12-30T10:31:11.716Z,31.1
2018-12-30T10:32:02.313Z,31.4
2018-12-30T10:32:52.176Z,31.6
2018-12-30T10:33:42.458Z,31.8
2018-12-30T10:34:32.858Z,32
2018-12-30T10:35:22.828Z,32.3
2018-12-30T10:36:11.215Z,32.4
2018-12-30T10:37:02.684Z,32.6
2018-12-30T10:37:53.261Z,32.8
2018-12-30T10:38:42.838Z,32.9
2018-12-30T10:39:32.850Z,33.1
2018-12-30T10:40:23.555Z,32.2
2018-12-30T10:41:12.420Z,31.8
2018-12-30T10:42:04.600Z,31.7
2018-12-30T10:42:53.045Z,31.6
2018-12-30T10:43:42.924Z,31.4
2018-12-30T10:44:32.885Z,31.3
2018-12-30T10:45:22.962Z,31.1
2018-12-30T10:46:13.667Z,30.9
2018-12-30T10:47:03.875Z,30.8
2018-12-30T10:47:53.132Z,30.8
2018-12-30T10:48:43.177Z,30.7
2018-12-30T10:49:33.505Z,30.3
2018-12-30T10:50:23.627Z,29.6
2018-12-30T10:51:13.411Z,29
2018-12-30T10:52:03.379Z,28.6
2018-12-30T10:52:53.467Z,28.4
2018-12-30T10:53:43.612Z,28.1
2018-12-30T10:54:32.791Z,27.7
2018-12-30T10:55:24.154Z,28.5
2018-12-30T10:56:14.039Z,29.3
2018-12-30T10:57:04.099Z,29.8
2018-12-30T10:57:53.296Z,30.1
2018-12-30T10:58:43.895Z,30.5
2018-12-30T10:59:33.914Z,30.8
2018-12-30T11:00:24.304Z,31.1
2018-12-30T11:01:14.016Z,31.3
2018-12-30T11:02:03.551Z,31.6
2018-12-30T11:02:54.151Z,31.8
2018-12-30T11:03:43.646Z,32.1
2018-12-30T11:04:34.592Z,32.3
2018-12-30T11:05:23.801Z,32.4
2018-12-30T11:06:13.621Z,32.6
2018-12-30T11:07:04.454Z,32.8
2018-12-30T11:07:54.286Z,32.9
2018-12-30T11:08:44.375Z,33.1
2018-12-30T11:09:34.949Z,32.4
2018-12-30T11:10:24.942Z,31.9
2018-12-30T11:11:15.005Z,31.8
2018-12-30T11:12:05.155Z,31.6
2018-12-30T11:12:54.558Z,31.4
2018-12-30T11:13:45.453Z,31.3
2018-12-30T11:14:35.226Z,31.1
2018-12-30T11:15:25.253Z,30.9
2018-12-30T11:16:14.793Z,30.8
2018-12-30T11:17:05.672Z,30.7
2018-12-30T11:17:54.975Z,30.6
2018-12-30T11:18:46.758Z,30.3
2018-12-30T11:19:34.555Z,29.4
2018-12-30T11:20:25.973Z,29
2018-12-30T11:21:16.495Z,28.6
2018-12-30T11:22:04.960Z,28.4
2018-12-30T11:22:56.440Z,28.1
2018-12-30T11:23:46.120Z,27.6
2018-12-30T11:24:37.915Z,28.1
2018-12-30T11:25:26.002Z,28.9
2018-12-30T11:26:15.817Z,29.5
2018-12-30T11:27:06.357Z,30.1
2018-12-30T11:27:56.142Z,30.4
2018-12-30T11:28:46.192Z,30.8
2018-12-30T11:29:36.200Z,31
2018-12-30T11:30:26.125Z,30.4
2018-12-30T11:31:18.040Z,29.5
2018-12-30T11:32:05.909Z,28.1
2018-12-30T11:32:55.342Z,26.8
2018-12-30T11:33:45.451Z,25.9
2018-12-30T11:34:36.266Z,25.8
2018-12-30T11:35:27.429Z,26.3
2018-12-30T11:36:18.160Z,27.4
2018-12-30T11:37:06.509Z,28.3
2018-12-30T11:37:56.766Z,29
2018-12-30T11:38:45.776Z,29.6
2018-12-30T11:39:36.228Z,30.1
2018-12-30T11:40:26.703Z,30.5
2018-12-30T11:41:16.461Z,30.9
2018-12-30T11:42:05.769Z,31.2
2018-12-30T11:42:57.708Z,31.5
2018-12-30T11:43:46.915Z,31.8
2018-12-30T11:44:37.523Z,32.1
2018-12-30T11:45:26.761Z,32.3
2018-12-30T11:46:17.916Z,32.4
2018-12-30T11:47:09.403Z,32.6
2018-12-30T11:47:57.268Z,32.8
2018-12-30T11:48:48.357Z,32.9
2018-12-30T11:49:37.343Z,33
2018-12-30T11:50:26.806Z,32
2018-12-30T11:51:17.191Z,31.7
2018-12-30T11:52:07.518Z,31.6
2018-12-30T11:52:57.570Z,31.4
2018-12-30T11:53:47.923Z,31.3
2018-12-30T11:54:37.662Z,31.1
2018-12-30T11:55:27.712Z,30.9
2018-12-30T11:56:17.775Z,30.8
2018-12-30T11:57:07.855Z,30.6
2018-12-30T11:57:58.172Z,30.6
2018-12-30T11:58:47.732Z,30.4
2018-12-30T11:59:38.574Z,30.4
2018-12-30T12:00:27.592Z,29.8
2018-12-30T12:01:18.150Z,29.1
2018-12-30T12:02:08.573Z,28.6
2018-12-30T12:02:57.974Z,28.3